Time;durP1;ratioP1;P1;durP2;ratioP2;P2;SDS_P1;SDS_P2;PMS_P1;PMS_P2;Temp;Humidity;BMP_temperature;BMP_pressure;BME280_temperature;BME280_humidity;BME280_pressure;Samples;Min_cycle;Max_cycle;Signal;HPM_P1;HPM_P2
2023/12/03 00:01:41;;;;;;;;;8.00;6.75;;;;;-146.25;100.00;57879.81;5118341;27;45361;-73
2023/12/03 00:04:07;;;;;;;;;15.50;12.00;;;;;-146.25;100.00;57879.81;5118559;27;45442;-73
2023/12/03 00:06:33;;;;;;;;;13.50;10.50;;;;;-146.25;100.00;57879.81;5118479;27;45483;-73
2023/12/03 00:08:59;;;;;;;;;10.00;10.00;;;;;-146.25;100.00;57879.81;5118140;27;45532;-73
2023/12/03 00:11:24;;;;;;;;;11.50;11.00;;;;;-146.25;100.00;57879.81;5118457;27;45361;-73
2023/12/03 00:13:50;;;;;;;;;12.25;11.00;;;;;-146.25;100.00;57879.81;5118845;27;45424;-73
2023/12/03 00:16:15;;;;;;;;;13.50;12.00;;;;;-146.25;100.00;57879.81;5117984;27;45375;-73
2023/12/03 00:18:41;;;;;;;;;10.00;9.75;;;;;-146.25;100.00;57879.81;5099491;27;45556;-73
2023/12/03 00:21:07;;;;;;;;;10.50;10.25;;;;;-146.25;100.00;57879.81;5118329;27;45318;-74
2023/12/03 00:23:32;;;;;;;;;10.50;9.00;;;;;-146.25;100.00;57879.81;5118718;27;45222;-73
2023/12/03 00:25:58;;;;;;;;;6.00;6.00;;;;;-146.25;100.00;57879.81;5117926;27;46121;-73
2023/12/03 00:28:23;;;;;;;;;7.50;5.00;;;;;-146.25;100.00;57879.81;5117926;27;45316;-73
2023/12/03 00:30:49;;;;;;;;;1.00;1.00;;;;;-146.25;100.00;57879.81;5118194;27;45168;-73
2023/12/03 00:33:14;;;;;;;;;3.00;1.75;;;;;-146.25;100.00;57879.81;5118202;27;45438;-73
2023/12/03 00:35:40;;;;;;;;;2.00;2.00;;;;;-146.25;100.00;57879.81;5117873;27;46157;-73
2023/12/03 00:38:06;;;;;;;;;4.00;2.75;;;;;-146.25;100.00;57879.81;5117627;27;45469;-73
2023/12/03 00:40:31;;;;;;;;;2.25;2.00;;;;;-146.25;100.00;57879.81;5117701;27;45283;-74
2023/12/03 00:42:57;;;;;;;;;1.00;1.00;;;;;-146.25;100.00;57879.81;5117726;27;45428;-73
2023/12/03 00:45:22;;;;;;;;;1.50;0.50;;;;;-146.25;100.00;57879.81;5099202;27;45491;-74
2023/12/03 00:47:48;;;;;;;;;3.00;3.00;;;;;-146.25;100.00;57879.81;5120771;27;45364;-73
2023/12/03 00:50:14;;;;;;;;;2.25;2.00;;;;;-146.25;100.00;57879.81;5102791;27;45470;-73
2023/12/03 00:52:40;;;;;;;;;2.00;1.75;;;;;-146.25;100.00;57879.81;5121769;27;45420;-73
2023/12/03 00:55:06;;;;;;;;;2.00;2.00;;;;;-146.25;100.00;57879.81;5105438;27;46040;-73
2023/12/03 00:57:32;;;;;;;;;3.00;3.00;;;;;-146.25;100.00;57879.81;5083140;27;45374;-73
2023/12/03 00:59:58;;;;;;;;;5.25;5.25;;;;;-146.25;100.00;57879.81;5100764;27;45457;-74
2023/12/03 01:02:23;;;;;;;;;5.00;3.00;;;;;-146.25;100.00;57879.81;5100905;27;45332;-73
2023/12/03 01:04:49;;;;;;;;;7.00;7.00;;;;;-146.25;100.00;57879.81;5100532;27;46001;-73
2023/12/03 01:07:14;;;;;;;;;5.00;5.00;;;;;-146.25;100.00;57879.81;5100652;27;45322;-73
2023/12/03 01:09:41;;;;;;;;;9.00;6.25;;;;;-146.25;100.00;57879.81;5100761;27;45502;-73
2023/12/03 01:12:07;;;;;;;;;10.00;5.75;;;;;-146.25;100.00;57879.81;5082719;27;45444;-73
2023/12/03 01:14:32;;;;;;;;;5.25;5.25;;;;;-146.25;100.00;57879.81;5100363;27;45380;-73
2023/12/03 01:16:58;;;;;;;;;7.50;6.25;;;;;-146.25;100.00;57879.81;5100498;27;45528;-73
2023/12/03 01:19:24;;;;;;;;;10.00;7.00;;;;;-146.25;100.00;57879.81;5100318;27;45565;-73
2023/12/03 01:21:49;;;;;;;;;6.00;5.75;;;;;-146.25;100.00;57879.81;5100666;27;45477;-73
2023/12/03 01:24:15;;;;;;;;;5.00;5.00;;;;;-146.25;100.00;57879.81;5100160;27;45578;-74
2023/12/03 01:26:41;;;;;;;;;5.50;5.50;;;;;-146.25;100.00;57879.81;5100318;27;45440;-73
2023/12/03 01:29:06;;;;;;;;;6.25;6.00;;;;;-146.25;100.00;57879.81;5100663;27;45435;-73
2023/12/03 01:31:32;;;;;;;;;6.50;5.00;;;;;-146.25;100.00;57879.81;5100605;27;45287;-73
2023/12/03 01:33:57;;;;;;;;;3.50;3.00;;;;;-146.25;100.00;57879.81;5100056;27;45351;-74
2023/12/03 01:36:23;;;;;;;;;4.50;3.50;;;;;-146.25;100.00;57879.81;5100040;27;45232;-74
2023/12/03 01:38:49;;;;;;;;;1.50;1.50;;;;;-146.25;100.00;57879.81;5099955;27;45608;-73
2023/12/03 01:41:14;;;;;;;;;6.50;6.50;;;;;-146.25;100.00;57879.81;5100255;27;45308;-73
2023/12/03 01:43:49;;;;;;;;;10.00;7.00;;;;;-146.25;100.00;57879.81;5100095;27;45438;-73
2023/12/03 01:46:15;;;;;;;;;7.00;7.00;;;;;-146.25;100.00;57879.81;5081747;27;45378;-73
2023/12/03 01:48:44;;;;;;;;;7.00;6.00;;;;;-146.25;100.00;57879.81;5099990;27;45382;-74
2023/12/03 01:51:11;;;;;;;;;8.25;6.50;;;;;-146.25;100.00;57879.81;5082057;27;45410;-73
2023/12/03 01:53:39;;;;;;;;;5.75;3.00;;;;;-146.25;100.00;57879.81;5100064;27;46045;-73
2023/12/03 01:56:05;;;;;;;;;9.75;8.00;;;;;-146.25;100.00;57879.81;5099761;27;45353;-73
2023/12/03 01:58:32;;;;;;;;;9.75;9.75;;;;;-146.25;100.00;57879.81;5098793;27;45499;-73
2023/12/03 02:00:58;;;;;;;;;6.75;6.00;;;;;-146.25;100.00;57879.81;5099860;27;45451;-73
2023/12/03 02:03:24;;;;;;;;;9.25;9.00;;;;;-146.25;100.00;57879.81;5099418;27;45471;-73
2023/12/03 02:06:09;;;;;;;;;7.25;5.75;;;;;-146.25;100.00;57879.81;5099561;27;45472;-73
2023/12/03 02:08:36;;;;;;;;;5.75;5.75;;;;;-146.25;100.00;57879.81;5099644;27;45501;-73
2023/12/03 02:11:04;;;;;;;;;6.00;6.00;;;;;-146.25;100.00;57879.81;5099759;27;45524;-73
2023/12/03 02:13:32;;;;;;;;;7.50;6.00;;;;;-146.25;100.00;57879.81;5099276;27;46223;-73
2023/12/03 02:15:58;;;;;;;;;5.00;5.00;;;;;-146.25;100.00;57879.81;5099343;27;45238;-73
2023/12/03 02:18:25;;;;;;;;;5.75;4.75;;;;;-146.25;100.00;57879.81;5099309;27;45440;-73
2023/12/03 02:20:51;;;;;;;;;5.00;5.00;;;;;-146.25;100.00;57879.81;5099787;27;45498;-73
2023/12/03 02:23:16;;;;;;;;;5.00;5.00;;;;;-146.25;100.00;57879.81;5099263;27;45446;-74
2023/12/03 02:25:42;;;;;;;;;4.75;3.25;;;;;-146.25;100.00;57879.81;5081261;27;45292;-73
2023/12/03 02:28:08;;;;;;;;;3.25;3.25;;;;;-146.25;100.00;57879.81;5099601;27;45354;-73
2023/12/03 02:30:34;;;;;;;;;3.25;3.25;;;;;-146.25;100.00;57879.81;5099652;27;45473;-73
2023/12/03 02:32:59;;;;;;;;;1.00;1.00;;;;;-146.25;100.00;57879.81;5099203;27;45486;-73
2023/12/03 02:35:25;;;;;;;;;2.50;2.50;;;;;-146.25;100.00;57879.81;5099275;27;45532;-73
2023/12/03 02:37:50;;;;;;;;;3.25;2.00;;;;;-146.25;100.00;57879.81;5099101;27;45500;-73
2023/12/03 02:40:16;;;;;;;;;3.25;2.50;;;;;-146.25;100.00;57879.81;5099267;27;45392;-73
2023/12/03 02:42:42;;;;;;;;;2.00;2.00;;;;;-146.25;100.00;57879.81;5099148;27;45858;-73
2023/12/03 02:45:12;;;;;;;;;2.00;1.50;;;;;-146.25;100.00;57879.81;5099108;27;45406;-73
2023/12/03 02:47:37;;;;;;;;;1.50;1.50;;;;;-146.25;100.00;57879.81;5099146;27;45354;-73
2023/12/03 02:50:03;;;;;;;;;4.75;4.75;;;;;-146.25;100.00;57879.81;5099085;27;45141;-73
2023/12/03 02:52:29;;;;;;;;;6.00;5.50;;;;;-146.25;100.00;57879.81;5098715;27;45552;-73
2023/12/03 02:54:55;;;;;;;;;8.50;7.00;;;;;-146.25;100.00;57879.81;5098858;27;45452;-73
2023/12/03 02:57:20;;;;;;;;;5.00;5.00;;;;;-146.25;100.00;57879.81;5098710;27;45567;-74
2023/12/03 02:59:46;;;;;;;;;2.00;1.00;;;;;-146.25;100.00;57879.81;5099038;27;45458;-73
2023/12/03 03:02:12;;;;;;;;;1.00;1.00;;;;;-146.25;100.00;57879.81;5098933;27;45433;-73
2023/12/03 03:04:37;;;;;;;;;2.25;2.00;;;;;-146.25;100.00;57879.81;5098630;27;45484;-73
2023/12/03 03:07:03;;;;;;;;;1.75;1.00;;;;;-146.25;100.00;57879.81;5098757;27;45516;-73
2023/12/03 03:09:29;;;;;;;;;1.25;1.00;;;;;-146.25;100.00;57879.81;5098739;27;45347;-73
2023/12/03 03:11:54;;;;;;;;;1.75;1.00;;;;;-146.25;100.00;57879.81;5098460;27;46104;-73
2023/12/03 03:14:20;;;;;;;;;1.00;1.00;;;;;-146.25;100.00;57879.81;5098667;27;45252;-74
2023/12/03 03:16:46;;;;;;;;;2.50;2.00;;;;;-146.25;100.00;57879.81;5098789;27;45394;-73
2023/12/03 03:19:11;;;;;;;;;0.00;0.00;;;;;-146.25;100.00;57879.81;5099114;27;45445;-73
2023/12/03 03:21:38;;;;;;;;;1.00;1.00;;;;;-146.25;100.00;57879.81;5098465;27;46120;-75
2023/12/03 03:24:04;;;;;;;;;1.25;1.00;;;;;-146.25;100.00;57879.81;5098550;27;45471;-75
2023/12/03 03:26:30;;;;;;;;;1.25;1.00;;;;;-146.25;100.00;57879.81;5098498;27;45933;-73
2023/12/03 03:28:55;;;;;;;;;0.50;0.50;;;;;-146.25;100.00;57879.81;5098663;27;45527;-74
2023/12/03 03:31:21;;;;;;;;;1.00;1.00;;;;;-146.25;100.00;57879.81;5098292;27;45965;-73
2023/12/03 03:33:47;;;;;;;;;1.25;1.25;;;;;-146.25;100.00;57879.81;5098213;27;45377;-74
2023/12/03 03:36:13;;;;;;;;;2.00;2.00;;;;;-146.25;100.00;57879.81;5098772;27;45302;-73
2023/12/03 03:38:40;;;;;;;;;1.00;1.00;;;;;-146.25;100.00;57879.81;5098626;27;45418;-74
2023/12/03 03:41:06;;;;;;;;;3.25;3.00;;;;;-146.25;100.00;57879.81;5098034;27;46287;-74
2023/12/03 03:43:31;;;;;;;;;2.00;2.00;;;;;-146.25;100.00;57879.81;5098146;27;45503;-73
2023/12/03 03:45:57;;;;;;;;;1.00;1.00;;;;;-146.25;100.00;57879.81;5098427;27;45364;-73
2023/12/03 03:48:23;;;;;;;;;2.50;1.25;;;;;-146.25;100.00;57879.81;5098345;27;45203;-73
2023/12/03 03:50:49;;;;;;;;;0.75;0.00;;;;;-146.25;100.00;57879.81;5097871;27;45229;-74
2023/12/03 03:53:14;;;;;;;;;0.75;0.75;;;;;-146.25;100.00;57879.81;5098411;27;45527;-74
2023/12/03 03:55:40;;;;;;;;;0.00;0.00;;;;;-146.25;100.00;57879.81;5098182;27;45245;-74
2023/12/03 03:58:05;;;;;;;;;1.00;1.00;;;;;-146.25;100.00;57879.81;5098277;27;45341;-74
2023/12/03 04:00:31;;;;;;;;;1.00;1.00;;;;;-146.25;100.00;57879.81;5097858;27;45497;-74
2023/12/03 04:02:57;;;;;;;;;1.00;1.00;;;;;-146.25;100.00;57879.81;5097940;27;45445;-74
2023/12/03 04:05:23;;;;;;;;;1.00;1.00;;;;;-146.25;100.00;57879.81;5098344;27;45289;-74
2023/12/03 04:07:49;;;;;;;;;1.00;1.00;;;;;-146.25;100.00;57879.81;5097986;27;45346;-74
2023/12/03 04:10:15;;;;;;;;;0.00;0.00;;;;;-146.25;100.00;57879.81;5098052;27;46396;-74
2023/12/03 04:12:41;;;;;;;;;1.50;0.50;;;;;-146.25;100.00;57879.81;5097874;27;45392;-74
2023/12/03 04:15:07;;;;;;;;;1.00;1.00;;;;;-146.25;100.00;57879.81;5098081;27;45366;-74
2023/12/03 04:17:33;;;;;;;;;2.00;2.00;;;;;-146.25;100.00;57879.81;5097971;27;45428;-74
2023/12/03 04:19:59;;;;;;;;;1.00;1.00;;;;;-146.25;100.00;57879.81;5097627;27;45430;-74
2023/12/03 04:22:24;;;;;;;;;2.00;1.00;;;;;-146.25;100.00;57879.81;5101269;27;45226;-74
2023/12/03 04:24:50;;;;;;;;;1.25;1.25;;;;;-146.25;100.00;57879.81;5083081;27;45447;-73
2023/12/03 04:27:16;;;;;;;;;1.00;1.00;;;;;-146.25;100.00;57879.81;5083239;27;45482;-73
2023/12/03 04:29:42;;;;;;;;;1.00;1.00;;;;;-146.25;100.00;57879.81;5100956;27;46207;-73
2023/12/03 04:32:08;;;;;;;;;0.25;0.25;;;;;-146.25;100.00;57879.81;5101097;27;45449;-73
2023/12/03 04:34:33;;;;;;;;;4.50;3.00;;;;;-146.25;100.00;57879.81;5101911;27;45373;-74
2023/12/03 04:36:59;;;;;;;;;1.50;1.50;;;;;-146.25;100.00;57879.81;5102198;27;45505;-74
2023/12/03 04:39:25;;;;;;;;;1.25;1.25;;;;;-146.25;100.00;57879.81;5101471;27;46083;-74
2023/12/03 04:41:50;;;;;;;;;1.75;1.00;;;;;-146.25;100.00;57879.81;5101197;27;45553;-74
2023/12/03 04:44:16;;;;;;;;;1.00;1.00;;;;;-146.25;100.00;57879.81;5083041;27;45424;-74
2023/12/03 04:46:41;;;;;;;;;1.00;1.00;;;;;-146.25;100.00;57879.81;5101225;27;45441;-74
2023/12/03 04:49:07;;;;;;;;;1.00;1.00;;;;;-146.25;100.00;57879.81;5100682;27;45960;-73
2023/12/03 04:51:33;;;;;;;;;1.00;1.00;;;;;-146.25;100.00;57879.81;5108874;27;45439;-73
2023/12/03 04:54:00;;;;;;;;;1.00;1.00;;;;;-146.25;100.00;57879.81;5121340;27;45325;-74
2023/12/03 04:56:25;;;;;;;;;0.50;0.50;;;;;-146.25;100.00;57879.81;5121725;27;45446;-73
2023/12/03 04:58:51;;;;;;;;;1.00;1.00;;;;;-146.25;100.00;57879.81;5121260;27;45395;-74
2023/12/03 05:01:18;;;;;;;;;1.00;1.00;;;;;-146.25;100.00;57879.81;5121476;27;45583;-74
2023/12/03 05:03:45;;;;;;;;;1.00;1.00;;;;;-146.25;100.00;57879.81;5121269;27;45457;-75
2023/12/03 05:06:11;;;;;;;;;1.50;1.50;;;;;-146.25;100.00;57879.81;5121184;27;45522;-73
2023/12/03 05:08:36;;;;;;;;;1.00;1.00;;;;;-146.25;100.00;57879.81;5120579;27;45605;-73
2023/12/03 05:11:04;;;;;;;;;1.00;1.00;;;;;-146.25;100.00;57879.81;5120850;27;45293;-73
2023/12/03 05:13:30;;;;;;;;;0.50;0.50;;;;;-146.25;100.00;57879.81;5102582;27;45509;-74
2023/12/03 05:15:56;;;;;;;;;0.25;0.00;;;;;-146.25;100.00;57879.81;5121208;27;45568;-75
2023/12/03 05:18:21;;;;;;;;;1.00;1.00;;;;;-146.25;100.00;57879.81;5121165;27;45449;-75
2023/12/03 05:20:48;;;;;;;;;0.00;0.00;;;;;-146.25;100.00;57879.81;5121064;27;45361;-74
2023/12/03 05:23:14;;;;;;;;;1.00;1.00;;;;;-146.25;100.00;57879.81;5120949;27;45376;-74
2023/12/03 05:25:40;;;;;;;;;1.75;1.00;;;;;-146.25;100.00;57879.81;5121014;27;45421;-74
2023/12/03 05:28:06;;;;;;;;;0.00;0.00;;;;;-146.25;100.00;57879.81;5120686;27;46093;-75
2023/12/03 05:30:31;;;;;;;;;0.25;0.25;;;;;-146.25;100.00;57879.81;5120227;27;45535;-75
2023/12/03 05:32:57;;;;;;;;;0.50;0.50;;;;;-146.25;100.00;57879.81;5118979;27;45496;-74
2023/12/03 05:35:23;;;;;;;;;0.00;0.00;;;;;-146.25;100.00;57879.81;5120938;27;45460;-74
2023/12/03 05:37:49;;;;;;;;;1.25;0.75;;;;;-146.25;100.00;57879.81;5120809;27;45936;-74
2023/12/03 05:40:15;;;;;;;;;1.00;1.00;;;;;-146.25;100.00;57879.81;5120298;27;45363;-75
2023/12/03 05:42:40;;;;;;;;;1.00;1.00;;;;;-146.25;100.00;57879.81;5120803;27;45164;-75
2023/12/03 05:45:06;;;;;;;;;0.00;0.00;;;;;-146.25;100.00;57879.81;5121094;27;45361;-75
2023/12/03 05:47:34;;;;;;;;;0.50;0.50;;;;;-146.25;100.00;57879.81;5120579;27;46134;-74
2023/12/03 05:50:01;;;;;;;;;1.25;0.25;;;;;-146.25;100.00;57879.81;5120470;27;45474;-74
2023/12/03 05:52:27;;;;;;;;;0.75;0.75;;;;;-146.25;100.00;57879.81;5120472;27;45213;-74
2023/12/03 05:54:52;;;;;;;;;1.00;1.00;;;;;-146.25;100.00;57879.81;5117305;27;45351;-74
2023/12/03 05:57:18;;;;;;;;;1.00;1.00;;;;;-146.25;100.00;57879.81;5110240;27;45532;-74
2023/12/03 05:59:44;;;;;;;;;0.25;0.25;;;;;-146.25;100.00;57879.81;5109114;27;45452;-74
2023/12/03 06:02:09;;;;;;;;;1.00;1.00;;;;;-146.25;100.00;57879.81;5108733;27;45790;-75
2023/12/03 06:04:35;;;;;;;;;4.00;1.00;;;;;-146.25;100.00;57879.81;5110272;27;45444;-73
2023/12/03 06:07:00;;;;;;;;;1.00;0.00;;;;;-146.25;100.00;57879.81;5108394;27;46342;-74
2023/12/03 06:09:26;;;;;;;;;1.50;0.50;;;;;-146.25;100.00;57879.81;5108735;27;45568;-74
2023/12/03 06:11:51;;;;;;;;;0.00;0.00;;;;;-146.25;100.00;57879.81;5110484;27;45553;-73
2023/12/03 06:14:17;;;;;;;;;9.25;7.25;;;;;-146.25;100.00;57879.81;5110919;27;45496;-74
2023/12/03 06:16:43;;;;;;;;;9.50;8.00;;;;;-146.25;100.00;57879.81;5109104;27;46061;-75
2023/12/03 06:19:08;;;;;;;;;37.50;28.75;;;;;-146.25;100.00;57879.81;5090655;27;45411;-74
2023/12/03 06:21:34;;;;;;;;;25.25;21.50;;;;;-146.25;100.00;57879.81;5107859;27;45445;-75
2023/12/03 06:23:59;;;;;;;;;8.25;8.00;;;;;-146.25;100.00;57879.81;5109895;27;45381;-74
2023/12/03 06:26:25;;;;;;;;;14.00;11.00;;;;;-146.25;100.00;57879.81;5109073;27;45992;-74
2023/12/03 06:28:50;;;;;;;;;27.75;24.50;;;;;-146.25;100.00;57879.81;5108036;27;45277;-75
2023/12/03 06:31:16;;;;;;;;;92.67;72.00;;;;;-146.25;100.00;57879.81;5109732;27;45492;-75
2023/12/03 06:33:42;;;;;;;;;22.25;19.25;;;;;-146.25;100.00;57879.81;5108309;27;45491;-74
2023/12/03 06:36:08;;;;;;;;;14.25;10.50;;;;;-146.25;100.00;57879.81;5108207;27;45483;-74
2023/12/03 06:38:34;;;;;;;;;26.00;23.00;;;;;-146.25;100.00;57879.81;5109592;27;45365;-75
2023/12/03 06:40:59;;;;;;;;;27.25;26.00;;;;;-146.25;100.00;57879.81;5107848;27;45529;-74
2023/12/03 06:43:25;;;;;;;;;32.25;30.25;;;;;-146.25;100.00;57879.81;5108616;27;45576;-74
2023/12/03 06:45:50;;;;;;;;;20.75;18.00;;;;;-146.25;100.00;57879.81;5109218;27;45688;-75
2023/12/03 06:48:16;;;;;;;;;10.00;9.25;;;;;-146.25;100.00;57879.81;5107301;27;45472;-74
2023/12/03 06:50:41;;;;;;;;;12.00;12.00;;;;;-146.25;100.00;57879.81;5109074;27;45393;-74
2023/12/03 06:53:07;;;;;;;;;9.75;8.00;;;;;-146.25;100.00;57879.81;5108953;27;45520;-74
2023/12/03 06:55:33;;;;;;;;;7.00;5.25;;;;;-146.25;100.00;57879.81;5107191;27;45460;-74
2023/12/03 06:57:58;;;;;;;;;3.00;2.00;;;;;-146.25;100.00;57879.81;5109296;27;45338;-74
2023/12/03 07:00:24;;;;;;;;;1.00;1.00;;;;;-146.25;100.00;57879.81;5108875;27;45434;-74
2023/12/03 07:02:50;;;;;;;;;1.00;1.00;;;;;-146.25;100.00;57879.81;5107617;27;45334;-75
2023/12/03 07:05:17;;;;;;;;;1.00;1.00;;;;;-146.25;100.00;57879.81;5109079;27;46558;-74
2023/12/03 07:07:43;;;;;;;;;50.25;44.50;;;;;-146.25;100.00;57879.81;5107908;27;45474;-74
2023/12/03 07:10:09;;;;;;;;;5.00;4.00;;;;;-146.25;100.00;57879.81;5089040;27;45602;-75
2023/12/03 07:12:35;;;;;;;;;24.50;22.00;;;;;-146.25;100.00;57879.81;5109235;27;45382;-74
2023/12/03 07:15:00;;;;;;;;;4.50;4.25;;;;;-146.25;100.00;57879.81;5107363;27;46234;-75
2023/12/03 07:17:26;;;;;;;;;4.00;4.00;;;;;-146.25;100.00;57879.81;5089815;27;45608;-74
2023/12/03 07:19:53;;;;;;;;;4.25;4.00;;;;;-146.25;100.00;57879.81;5090480;27;45561;-75
2023/12/03 07:22:18;;;;;;;;;2.00;2.00;;;;;-146.25;100.00;57879.81;5119071;27;45393;-73
2023/12/03 07:24:44;;;;;;;;;4.50;4.50;;;;;-146.25;100.00;57879.81;5118836;27;45388;-75
2023/12/03 07:27:09;;;;;;;;;2.00;2.00;;;;;-146.25;100.00;57879.81;5118895;27;45422;-75
2023/12/03 07:29:36;;;;;;;;;4.25;4.25;;;;;-146.25;100.00;57879.81;5118917;27;45418;-74
2023/12/03 07:32:02;;;;;;;;;5.00;5.00;;;;;-146.25;100.00;57879.81;5100517;27;45563;-75
2023/12/03 07:34:27;;;;;;;;;2.00;2.00;;;;;-146.25;100.00;57879.81;5118881;27;46077;-74
2023/12/03 07:36:53;;;;;;;;;8.00;5.00;;;;;-146.25;100.00;57879.81;5118665;27;45485;-74
2023/12/03 07:39:19;;;;;;;;;12.75;11.50;;;;;-146.25;100.00;57879.81;5118927;27;45329;-74
2023/12/03 07:41:52;;;;;;;;;43.75;39.50;;;;;-146.25;100.00;57879.81;5118863;27;45509;-74
2023/12/03 07:44:18;;;;;;;;;13.00;13.00;;;;;-146.25;100.00;57879.81;5118604;27;45399;-75
2023/12/03 07:46:44;;;;;;;;;27.50;21.75;;;;;-146.25;100.00;57879.81;5118481;27;45384;-74
2023/12/03 07:49:09;;;;;;;;;25.50;22.25;;;;;-146.25;100.00;57879.81;5118718;27;45373;-74
2023/12/03 07:51:35;;;;;;;;;8.00;5.00;;;;;-146.25;100.00;57879.81;5118874;27;45462;-74
2023/12/03 07:54:01;;;;;;;;;16.00;13.25;;;;;-146.25;100.00;57879.81;5118633;27;46086;-75
2023/12/03 07:56:40;;;;;;;;;15.75;13.25;;;;;-146.25;100.00;57879.81;5117919;27;45358;-74
2023/12/03 07:59:07;;;;;;;;;18.00;17.00;;;;;-146.25;100.00;57879.81;5118752;27;45398;-74
2023/12/03 08:01:33;;;;;;;;;17.25;16.50;;;;;-146.25;100.00;57879.81;5118565;27;45305;-74
2023/12/03 08:03:59;;;;;;;;;123.67;90.00;;;;;-146.25;100.00;57879.81;5099831;27;46487;-75
2023/12/03 08:06:25;;;;;;;;;75.50;53.50;;;;;-146.25;100.00;57879.81;5118033;27;45480;-74
2023/12/03 08:08:54;;;;;;;;;62.50;48.25;;;;;-146.25;100.00;57879.81;5118148;27;45365;-74
2023/12/03 08:11:20;;;;;;;;;50.00;39.50;;;;;-146.25;100.00;57879.81;5118530;27;45288;-74
2023/12/03 08:13:46;;;;;;;;;46.00;37.50;;;;;-146.25;100.00;57879.81;5117753;27;46112;-75
2023/12/03 08:16:12;;;;;;;;;35.00;30.50;;;;;-146.25;100.00;57879.81;5118143;27;45539;-74
2023/12/03 08:18:38;;;;;;;;;49.25;43.00;;;;;-146.25;100.00;57879.81;5118327;27;45350;-75
2023/12/03 08:21:04;;;;;;;;;77.00;59.50;;;;;-146.25;100.00;57879.81;5118257;27;45455;-74
2023/12/03 08:23:32;;;;;;;;;91.67;71.33;;;;;-146.25;100.00;57879.81;5118164;27;45572;-74
2023/12/03 08:25:58;;;;;;;;;61.25;49.75;;;;;-146.25;100.00;57879.81;5099831;27;45181;-74
2023/12/03 08:28:23;;;;;;;;;58.25;47.75;;;;;-146.25;100.00;57879.81;5099279;27;45418;-74
2023/12/03 08:30:49;;;;;;;;;43.50;40.00;;;;;-146.25;100.00;57879.81;5118230;27;45546;-75
2023/12/03 08:33:15;;;;;;;;;13.50;12.25;;;;;-146.25;100.00;57879.81;5117949;27;45401;-74
2023/12/03 08:35:41;;;;;;;;;27.50;25.00;;;;;-146.25;100.00;57879.81;5117682;27;45670;-75
2023/12/03 08:38:07;;;;;;;;;20.75;20.00;;;;;-146.25;100.00;57879.81;5117249;27;45470;-74
2023/12/03 08:40:33;;;;;;;;;20.75;19.25;;;;;-146.25;100.00;57879.81;5117422;27;45493;-75
2023/12/03 08:43:02;;;;;;;;;24.75;23.75;;;;;-146.25;100.00;57879.81;5117194;27;45449;-74
2023/12/03 08:45:29;;;;;;;;;61.25;49.25;;;;;-146.25;100.00;57879.81;5117315;27;45328;-74
2023/12/03 08:47:55;;;;;;;;;28.25;24.75;;;;;-146.25;100.00;57879.81;5111522;27;45657;-74
2023/12/03 08:50:27;;;;;;;;;24.50;23.50;;;;;-146.25;100.00;57879.81;5105788;27;45409;-74
2023/12/03 08:52:53;;;;;;;;;11.25;10.00;;;;;-146.25;100.00;57879.81;5117541;27;46067;-74
2023/12/03 08:55:18;;;;;;;;;17.00;13.25;;;;;-146.25;100.00;57879.81;5098819;27;45473;-74
2023/12/03 08:57:44;;;;;;;;;41.25;38.25;;;;;-146.25;100.00;57879.81;5096743;27;45522;-75
2023/12/03 09:00:12;;;;;;;;;22.75;21.75;;;;;-146.25;100.00;57879.81;5078846;27;45428;-76
2023/12/03 09:02:39;;;;;;;;;18.50;17.75;;;;;-146.25;100.00;57879.81;5096572;27;46085;-76
2023/12/03 09:05:05;;;;;;;;;9.50;9.25;;;;;-146.25;100.00;57879.81;5096914;27;45304;-75
2023/12/03 09:07:31;;;;;;;;;10.00;7.00;;;;;-146.25;100.00;57879.81;5099314;27;45358;-80
2023/12/03 09:09:57;;;;;;;;;5.25;5.00;;;;;-146.25;100.00;57879.81;5100477;27;45326;-75
2023/12/03 09:12:23;;;;;;;;;7.00;6.50;;;;;-146.25;100.00;57879.81;5100207;27;45551;-74
2023/12/03 09:14:49;;;;;;;;;9.75;9.25;;;;;-146.25;100.00;57879.81;5100007;27;45428;-75
2023/12/03 09:17:17;;;;;;;;;11.00;10.75;;;;;-146.25;100.00;57879.81;5100223;27;45448;-75
2023/12/03 09:19:43;;;;;;;;;5.50;4.00;;;;;-146.25;100.00;57879.81;5100425;27;45433;-74
2023/12/03 09:22:08;;;;;;;;;7.50;4.50;;;;;-146.25;100.00;57879.81;5100105;27;45469;-75
2023/12/03 09:24:34;;;;;;;;;2.75;2.75;;;;;-146.25;100.00;57879.81;5100616;27;45291;-75
2023/12/03 09:27:00;;;;;;;;;4.75;3.00;;;;;-146.25;100.00;57879.81;5100738;27;45281;-74
2023/12/03 09:29:26;;;;;;;;;4.50;3.00;;;;;-146.25;100.00;57879.81;5100132;27;45496;-78
2023/12/03 09:31:52;;;;;;;;;6.25;4.25;;;;;-146.25;100.00;57879.81;5099626;27;45691;-77
2023/12/03 09:34:21;;;;;;;;;3.75;3.75;;;;;-146.25;100.00;57879.81;5101300;27;45463;-83
2023/12/03 09:36:46;;;;;;;;;9.50;5.75;;;;;-146.25;100.00;57879.81;5099917;27;45324;-76
2023/12/03 09:39:12;;;;;;;;;6.67;5.33;;;;;-146.25;100.00;57879.81;5100116;27;45464;-74
2023/12/03 09:41:44;;;;;;;;;2.33;2.00;;;;;-146.25;100.00;57879.81;5099948;27;45850;-74
2023/12/03 09:44:21;;;;;;;;;2.00;2.00;;;;;-146.25;100.00;57879.81;5099696;27;45555;-77
2023/12/03 09:46:49;;;;;;;;;3.00;2.00;;;;;-146.25;100.00;57879.81;5099566;27;45476;-74
2023/12/03 09:49:18;;;;;;;;;2.00;2.00;;;;;-146.25;100.00;57879.81;5099741;27;45514;-74
2023/12/03 09:51:45;;;;;;;;;5.00;4.00;;;;;-146.25;100.00;57879.81;5099503;27;45584;-74
2023/12/03 09:54:11;;;;;;;;;4.00;4.00;;;;;-146.25;100.00;57879.81;5099871;27;45473;-75
2023/12/03 09:56:40;;;;;;;;;6.33;5.67;;;;;-146.25;100.00;57879.81;5100031;27;45376;-74
2023/12/03 09:59:09;;;;;;;;;4.00;4.00;;;;;-146.25;100.00;57879.81;5100095;27;45363;-74
2023/12/03 10:01:38;;;;;;;;;5.00;4.00;;;;;-146.25;100.00;57879.81;5098836;27;45720;-75
2023/12/03 10:04:04;;;;;;;;;5.00;5.00;;;;;-146.25;100.00;57879.81;5101068;27;45438;-76
2023/12/03 10:06:33;;;;;;;;;3.00;3.00;;;;;-146.25;100.00;57879.81;5098498;27;45410;-75
2023/12/03 10:08:59;;;;;;;;;6.00;5.33;;;;;-146.25;100.00;57879.81;5099543;27;45454;-75
2023/12/03 10:11:26;;;;;;;;;10.00;10.00;;;;;-146.25;100.00;57879.81;5099104;27;46310;-75
2023/12/03 10:13:54;;;;;;;;;5.00;5.00;;;;;-146.25;100.00;57879.81;5098942;27;45471;-75
2023/12/03 10:16:22;;;;;;;;;10.00;9.33;;;;;-146.25;100.00;57879.81;5098577;27;45331;-76
2023/12/03 10:18:49;;;;;;;;;2.67;2.67;;;;;-146.25;100.00;57879.81;5098512;27;45500;-75
2023/12/03 10:21:15;;;;;;;;;4.67;4.00;;;;;-146.25;100.00;57879.81;5099176;27;45403;-76
2023/12/03 10:23:41;;;;;;;;;4.00;4.00;;;;;-146.25;100.00;57879.81;5098993;27;45472;-76
2023/12/03 10:26:13;;;;;;;;;4.67;4.00;;;;;-146.25;100.00;57879.81;5099303;27;45450;-75
2023/12/03 10:28:41;;;;;;;;;5.00;4.33;;;;;-146.25;100.00;57879.81;5097453;27;45584;-76
2023/12/03 10:31:15;;;;;;;;;5.00;3.67;;;;;-146.25;100.00;57879.81;5099246;27;45252;-76
2023/12/03 10:33:44;;;;;;;;;3.00;2.00;;;;;-146.25;100.00;57879.81;5098766;27;45460;-76
2023/12/03 10:36:11;;;;;;;;;3.67;3.00;;;;;-146.25;100.00;57879.81;5099320;27;45549;-76
2023/12/03 10:38:38;;;;;;;;;4.00;4.00;;;;;-146.25;100.00;57879.81;5099496;27;45240;-76
2023/12/03 10:41:10;;;;;;;;;5.00;5.00;;;;;-146.25;100.00;57879.81;5099145;27;45671;-76
2023/12/03 10:43:39;;;;;;;;;6.00;5.00;;;;;-146.25;100.00;57879.81;5098569;27;45494;-76
2023/12/03 10:46:10;;;;;;;;;1.00;1.00;;;;;-146.25;100.00;57879.81;5098552;27;45434;-76
2023/12/03 10:48:36;;;;;;;;;3.00;3.00;;;;;-146.25;100.00;57879.81;5098571;27;45426;-75
2023/12/03 10:51:09;;;;;;;;;0.00;0.00;;;;;-146.25;100.00;57879.81;5098201;27;45393;-76
2023/12/03 10:53:36;;;;;;;;;4.00;3.33;;;;;-146.25;100.00;57879.81;5098745;27;45457;-73
2023/12/03 10:56:03;;;;;;;;;2.00;2.00;;;;;-146.25;100.00;57879.81;5098897;27;45393;-73
2023/12/03 10:58:40;;;;;;;;;3.00;2.00;;;;;-146.25;100.00;57879.81;5098821;27;45274;-74
2023/12/03 11:01:20;;;;;;;;;2.67;2.67;;;;;-146.25;100.00;57879.81;5080055;27;45542;-73
2023/12/03 11:04:04;;;;;;;;;5.67;5.00;;;;;-146.25;100.00;57879.81;5097703;27;45442;-74